Wetterdaten am Flugplatz MSG Übersee

alte Datensätze gelöscht
37 aktuelle Wetterdateneinträge gefunden

Datum/Uhrzeit   Windrichtung/Grad    Geschw./kmh    Temp./C°    Luftdruck/mbar    Spannung/Volt   
2026-09-05 00:04 W/262 6 26 1020 12,27
2026-09-05 00:14 W/274 3 26 1020 12,29
2026-09-05 00:24 W/291 5 26 1020 12,32
2026-09-05 00:34 W/285 4 25 1020 12,35
2026-09-05 00:44 W/267 4 25 1020 11,86
2026-09-05 00:54 W/263 6 25 1020 12,13
2026-09-05 01:05 W/264 6 25 1020 12,17
2026-09-05 01:15 W/258 9 25 1020 12,20
2026-09-05 01:25 W/258 9 25 1020 12,23
2026-09-05 01:35 W/263 10 25 1020 12,24
2026-09-05 01:45 W/256 12 25 1020 12,27
2026-09-05 01:55 W/261 9 25 1020 12,29
2026-09-05 02:05 W/260 6 25 1020 12,30
2026-09-05 02:15 W/275 6 26 1020 11,91
2026-09-05 02:25 W/270 6 26 1020 12,11
2026-09-05 02:35 W/265 6 26 1020 12,14
2026-09-05 02:45 W/277 9 26 1020 12,17
2026-09-05 02:55 W/269 6 26 1020 12,20
2026-09-05 03:05 W/289 6 25 1020 12,21
2026-09-05 03:15 W/277 6 25 1020 12,24
2026-09-05 03:26 W/271 6 25 1020 12,26
2026-09-05 03:36 NW/295 6 25 1020 12,27
2026-09-05 03:46 NW/327 13 25 1020 12,30
2026-09-05 03:56 NW/326 16 25 1021 11,89
2026-09-05 04:06 NW/322 15 25 1020 12,05
2026-09-05 04:16 NW/317 12 25 1021 12,10
2026-09-05 04:26 NW/316 9 25 1021 12,13
2026-09-05 04:36 NW/315 11 25 1021 12,16
2026-09-05 04:46 NW/313 13 25 1021 12,17
2026-09-05 04:56 W/274 5 25 1021 12,20
2026-09-05 05:06 W/286 9 25 1022 12,21
2026-09-05 05:16 W/292 12 25 1022 12,23
2026-09-05 05:26 W/265 10 24 1022 11,77
2026-09-05 05:36 W/250 12 24 1022 12,04
2026-09-05 05:46 W/251 6 24 1022 12,08
2026-09-05 05:57 NW/309 13 24 1022 12,11
2026-09-05 06:07 NW/326 18 23 1023 12,16